createdAt,value
2019-03-11T00:00:25.106Z,69.11
2019-03-11T00:02:53.513Z,67.38
2019-03-11T00:05:21.893Z,69.06
2019-03-11T00:07:50.232Z,69.43
2019-03-11T00:10:18.602Z,68.81
2019-03-11T00:12:46.941Z,68.99
2019-03-11T00:15:15.316Z,68.80
2019-03-11T00:17:43.662Z,68.65
2019-03-11T00:20:12.102Z,67.59
2019-03-11T00:22:40.876Z,69.62
2019-03-11T00:25:09.873Z,68.86
2019-03-11T00:27:38.218Z,69.28
2019-03-11T00:30:09.626Z,70.48
2019-03-11T00:32:38.321Z,71.07
2019-03-11T00:35:07.163Z,71.46
2019-03-11T00:37:35.580Z,70.67
2019-03-11T00:40:05.951Z,72.34
2019-03-11T00:42:34.286Z,70.23
2019-03-11T00:45:02.802Z,70.23
2019-03-11T00:47:31.139Z,71.01
2019-03-11T00:49:59.512Z,70.93
2019-03-11T00:52:27.941Z,69.93
2019-03-11T00:54:56.311Z,69.60
2019-03-11T00:57:24.640Z,69.70
2019-03-11T00:59:53.013Z,69.71
2019-03-11T01:02:21.361Z,70.86
2019-03-11T01:04:49.793Z,70.75
2019-03-11T01:07:18.127Z,70.25
2019-03-11T01:09:46.569Z,71.20
2019-03-11T01:12:14.983Z,71.12
2019-03-11T01:14:43.352Z,70.06
2019-03-11T01:17:11.696Z,71.13
2019-03-11T01:19:40.032Z,70.48
2019-03-11T01:22:08.390Z,70.90
2019-03-11T01:24:36.727Z,70.57
2019-03-11T01:27:05.165Z,70.92
2019-03-11T01:29:33.507Z,71.91
2019-03-11T01:32:01.957Z,71.94
2019-03-11T01:34:30.297Z,71.10
2019-03-11T01:36:58.673Z,72.21
2019-03-11T01:39:27.087Z,71.69
2019-03-11T01:41:55.464Z,73.80
2019-03-11T01:44:23.804Z,73.85
2019-03-11T01:46:52.173Z,73.11
2019-03-11T01:49:20.513Z,72.21
2019-03-11T01:51:48.958Z,73.08
2019-03-11T01:54:17.301Z,73.74
2019-03-11T01:56:45.672Z,73.54
2019-03-11T01:59:14.013Z,73.40
2019-03-11T02:01:42.462Z,73.69
2019-03-11T02:04:10.950Z,74.71
2019-03-11T02:06:39.389Z,74.85
2019-03-11T02:09:09.408Z,74.76
2019-03-11T02:11:39.315Z,75.84
2019-03-11T02:14:08.437Z,76.04
2019-03-11T02:16:37.384Z,76.65
2019-03-11T02:19:05.734Z,78.29
2019-03-11T02:21:34.188Z,78.56
2019-03-11T02:24:02.524Z,79.03
2019-03-11T02:26:30.900Z,79.25
2019-03-11T02:28:59.247Z,79.99
2019-03-11T02:31:27.913Z,80.67
2019-03-11T02:33:56.224Z,80.78
2019-03-11T02:36:24.604Z,81.40
2019-03-11T02:38:52.958Z,80.87
2019-03-11T02:41:21.397Z,82.52
2019-03-11T02:43:49.740Z,81.11
2019-03-11T02:46:18.108Z,82.48
2019-03-11T02:48:46.450Z,81.27
2019-03-11T02:51:14.822Z,82.86
2019-03-11T02:53:43.162Z,83.31
2019-03-11T02:56:11.608Z,82.90
2019-03-11T02:58:40.018Z,82.81
2019-03-11T03:01:19.088Z,83.70
2019-03-11T03:04:01.272Z,85.78
2019-03-11T03:06:29.723Z,85.72
2019-03-11T03:08:58.068Z,85.54
2019-03-11T03:11:26.506Z,86.13
2019-03-11T03:13:54.842Z,85.16
2019-03-11T03:16:23.184Z,86.36
2019-03-11T03:18:51.557Z,86.30
2019-03-11T03:21:19.909Z,85.39
2019-03-11T03:23:48.274Z,84.92
2019-03-11T03:26:16.622Z,85.16
2019-03-11T03:28:44.996Z,83.40
2019-03-11T03:31:13.333Z,82.28
2019-03-11T03:33:41.696Z,82.37
2019-03-11T03:36:10.108Z,82.89
2019-03-11T03:38:38.485Z,83.36
2019-03-11T03:41:06.817Z,85.99
2019-03-11T03:43:35.271Z,90.73
2019-03-11T03:46:17.397Z,92.43
2019-03-11T03:48:33.805Z,93.11
2019-03-11T03:51:02.185Z,92.91
2019-03-11T03:53:30.560Z,91.52
2019-03-11T03:55:58.902Z,91.82
2019-03-11T03:58:27.271Z,91.92
2019-03-11T04:00:55.611Z,92.87
2019-03-11T04:03:23.982Z,93.83
2019-03-11T04:05:52.709Z,92.85
2019-03-11T04:08:21.152Z,90.80
2019-03-11T04:10:49.487Z,88.25
2019-03-11T04:13:17.918Z,88.09
2019-03-11T04:15:46.424Z,89.18
2019-03-11T04:18:14.864Z,89.06
2019-03-11T04:20:43.266Z,89.19
2019-03-11T04:23:11.703Z,90.31
2019-03-11T04:25:40.131Z,90.02
2019-03-11T04:28:08.569Z,88.55
2019-03-11T04:30:36.977Z,90.35
2019-03-11T04:33:05.414Z,90.51
2019-03-11T04:35:33.753Z,88.84
2019-03-11T04:38:02.104Z,87.27
2019-03-11T04:40:30.827Z,86.16
2019-03-11T04:42:59.166Z,87.75
2019-03-11T04:45:27.609Z,88.34
2019-03-11T04:47:55.948Z,87.41
2019-03-11T04:50:24.313Z,87.99
2019-03-11T04:52:52.654Z,88.35
2019-03-11T04:55:21.048Z,90.17
2019-03-11T04:57:52.558Z,89.74
2019-03-11T05:00:23.270Z,95.18
2019-03-11T05:02:51.627Z,94.38
2019-03-11T05:05:20.082Z,100.00
2019-03-11T05:07:48.500Z,100.00
2019-03-11T05:10:17.021Z,100.00
2019-03-11T05:12:45.732Z,100.00
2019-03-11T05:15:16.028Z,100.00
2019-03-11T05:17:45.315Z,100.00
2019-03-11T05:20:15.796Z,100.00
2019-03-11T05:22:44.192Z,100.00
2019-03-11T05:25:14.075Z,100.00
2019-03-11T05:27:42.496Z,100.00
2019-03-11T05:30:20.473Z,100.00
2019-03-11T05:32:48.916Z,97.34
2019-03-11T05:35:17.506Z,93.49
2019-03-11T05:37:45.914Z,93.28
2019-03-11T05:40:21.068Z,92.16
2019-03-11T05:42:49.413Z,91.47
2019-03-11T05:45:18.631Z,90.07
2019-03-11T05:47:47.029Z,89.22
2019-03-11T05:50:16.341Z,88.78
2019-03-11T05:52:44.825Z,88.24
2019-03-11T05:55:13.930Z,87.85
2019-03-11T05:57:42.411Z,85.19
2019-03-11T06:00:24.275Z,86.31
2019-03-11T06:02:52.607Z,83.69
2019-03-11T06:05:21.159Z,84.54
2019-03-11T06:07:49.607Z,82.26
2019-03-11T06:10:18.041Z,81.98
2019-03-11T06:12:46.378Z,80.66
2019-03-11T06:15:15.492Z,78.77
2019-03-11T06:17:44.029Z,78.24
2019-03-11T06:20:18.797Z,78.86
2019-03-11T06:22:47.138Z,78.20
2019-03-11T06:25:15.487Z,76.20
2019-03-11T06:27:43.867Z,73.78
2019-03-11T06:30:12.691Z,72.74
2019-03-11T06:32:41.058Z,73.77
2019-03-11T06:35:09.470Z,72.36
2019-03-11T06:37:37.837Z,73.39
2019-03-11T06:40:10.228Z,71.12
2019-03-11T06:42:39.876Z,71.59
2019-03-11T06:45:13.246Z,70.82
2019-03-11T06:47:41.608Z,72.66
2019-03-11T06:50:11.486Z,69.73
2019-03-11T06:52:39.925Z,69.56
2019-03-11T06:55:10.578Z,70.32
2019-03-11T06:57:39.025Z,70.81
2019-03-11T07:00:20.371Z,70.69
2019-03-11T07:02:48.741Z,70.94
2019-03-11T07:05:20.364Z,71.02
2019-03-11T07:07:47.309Z,72.63
2019-03-11T07:10:16.608Z,74.69
2019-03-11T07:12:45.111Z,78.88
2019-03-11T07:15:15.538Z,84.05
2019-03-11T07:17:44.146Z,82.63
2019-03-11T07:20:15.660Z,81.18
2019-03-11T07:22:44.120Z,82.78
2019-03-11T07:25:12.447Z,82.65
2019-03-11T07:27:40.807Z,82.09
2019-03-11T07:30:19.294Z,78.88
2019-03-11T07:32:47.766Z,79.48
2019-03-11T07:35:16.104Z,78.37
2019-03-11T07:37:44.541Z,77.76
2019-03-11T07:40:29.286Z,77.37
2019-03-11T07:42:49.120Z,76.82
2019-03-11T07:45:17.792Z,79.44
2019-03-11T07:47:46.236Z,79.29
2019-03-11T07:50:16.010Z,80.36
2019-03-11T07:52:44.450Z,82.13
2019-03-11T07:55:13.531Z,79.24
2019-03-11T07:57:41.966Z,80.21
2019-03-11T08:00:20.572Z,79.74
2019-03-11T08:02:48.939Z,79.46
2019-03-11T08:05:17.289Z,80.45
2019-03-11T08:07:45.726Z,77.24
2019-03-11T08:10:18.726Z,76.14
2019-03-11T08:12:47.105Z,77.86
2019-03-11T08:15:16.379Z,75.45
2019-03-11T08:17:44.814Z,71.99
2019-03-11T08:20:15.264Z,74.45
2019-03-11T08:22:43.767Z,69.93
2019-03-11T08:25:13.147Z,71.83
2019-03-11T08:27:41.597Z,71.51
2019-03-11T08:30:15.730Z,70.72
2019-03-11T08:32:44.174Z,67.79
2019-03-11T08:35:12.654Z,69.42
2019-03-11T08:37:41.029Z,69.41
2019-03-11T08:40:15.169Z,69.96
2019-03-11T08:42:43.532Z,70.43
2019-03-11T08:45:13.909Z,70.74
2019-03-11T08:47:42.358Z,71.48
2019-03-11T08:50:16.505Z,70.53
2019-03-11T08:52:44.936Z,69.83
2019-03-11T08:55:14.011Z,68.18
2019-03-11T08:57:42.444Z,65.87
2019-03-11T09:00:20.163Z,64.89
2019-03-11T09:02:48.616Z,65.18
2019-03-11T09:05:17.214Z,64.58
2019-03-11T09:07:45.617Z,63.88
2019-03-11T09:10:15.331Z,65.17
2019-03-11T09:12:43.813Z,65.26
2019-03-11T09:15:14.021Z,63.04
2019-03-11T09:17:42.606Z,62.32
2019-03-11T09:20:12.973Z,61.36
2019-03-11T09:22:41.338Z,60.03
2019-03-11T09:25:21.544Z,59.95
2019-03-11T09:27:50.971Z,60.26
2019-03-11T09:30:23.172Z,63.05
2019-03-11T09:32:51.580Z,61.90
2019-03-11T09:35:19.954Z,61.58
2019-03-11T09:37:48.367Z,65.04
2019-03-11T09:40:19.648Z,63.97
2019-03-11T09:42:47.992Z,60.95
2019-03-11T09:45:18.662Z,60.95
2019-03-11T09:47:47.336Z,62.72
2019-03-11T09:50:16.244Z,60.05
2019-03-11T09:52:44.578Z,60.21
2019-03-11T09:55:29.305Z,60.81
2019-03-11T09:57:57.716Z,61.69
2019-03-11T10:00:31.267Z,61.63
2019-03-11T10:02:59.683Z,61.04
2019-03-11T10:05:28.112Z,61.39
2019-03-11T10:07:56.639Z,62.19
2019-03-11T10:10:26.711Z,61.24
2019-03-11T10:12:55.114Z,61.51
2019-03-11T10:15:23.854Z,61.38
2019-03-11T10:17:52.192Z,61.42
2019-03-11T10:20:20.995Z,63.54
2019-03-11T10:22:49.504Z,61.57
2019-03-11T10:25:18.820Z,61.26
2019-03-11T10:27:47.294Z,61.75
2019-03-11T10:30:22.494Z,62.22
2019-03-11T10:32:50.900Z,60.07
2019-03-11T10:35:31.275Z,61.23
2019-03-11T10:37:50.444Z,60.41
2019-03-11T10:40:26.337Z,61.17
2019-03-11T10:42:55.548Z,61.13
2019-03-11T10:45:31.134Z,60.83
2019-03-11T10:47:54.137Z,59.80
2019-03-11T10:50:22.664Z,59.45
2019-03-11T10:52:51.065Z,59.96
2019-03-11T10:55:22.608Z,58.74
2019-03-11T10:57:50.946Z,58.52
2019-03-11T11:00:27.705Z,58.59
2019-03-11T11:02:56.183Z,59.68
2019-03-11T11:05:24.617Z,60.17
2019-03-11T11:07:53.149Z,60.08
2019-03-11T11:10:21.589Z,61.01
2019-03-11T11:12:50.097Z,62.25
2019-03-11T11:15:26.459Z,60.58
2019-03-11T11:17:54.870Z,61.30
2019-03-11T11:20:24.082Z,60.37
2019-03-11T11:22:53.651Z,58.70
2019-03-11T11:25:23.662Z,58.59
2019-03-11T11:27:52.138Z,57.33
2019-03-11T11:30:26.147Z,56.56
2019-03-11T11:32:54.728Z,55.91
2019-03-11T11:35:23.164Z,56.03
2019-03-11T11:37:52.267Z,56.26
2019-03-11T11:40:22.672Z,56.36
2019-03-11T11:42:51.352Z,55.71
2019-03-11T11:45:23.803Z,56.96
2019-03-11T11:47:52.310Z,55.39
2019-03-11T11:50:21.899Z,57.58
2019-03-11T11:52:50.500Z,55.91
2019-03-11T11:55:20.283Z,56.25
2019-03-11T11:57:48.729Z,57.72
2019-03-11T12:00:26.466Z,59.05
2019-03-11T12:02:54.897Z,57.30
2019-03-11T12:05:23.381Z,56.73
2019-03-11T12:07:51.987Z,55.58
2019-03-11T12:10:25.673Z,54.92
2019-03-11T12:12:54.112Z,57.46
2019-03-11T12:15:22.590Z,56.66
2019-03-11T12:17:51.031Z,54.05
2019-03-11T12:20:26.803Z,54.96
2019-03-11T12:22:55.315Z,53.78
2019-03-11T12:25:23.718Z,54.19
2019-03-11T12:27:54.233Z,54.92
2019-03-11T12:30:27.236Z,55.16
2019-03-11T12:32:58.227Z,55.24
2019-03-11T12:35:26.699Z,56.23
2019-03-11T12:37:55.213Z,57.51
2019-03-11T12:40:23.692Z,56.00
2019-03-11T12:42:52.070Z,56.74
2019-03-11T12:45:21.645Z,57.19
2019-03-11T12:47:50.282Z,57.58
2019-03-11T12:50:24.662Z,55.49
2019-03-11T12:52:53.205Z,56.69
2019-03-11T12:55:22.026Z,56.14
2019-03-11T12:57:50.526Z,56.02
2019-03-11T13:00:20.203Z,55.51
2019-03-11T13:02:48.909Z,56.35
2019-03-11T13:05:17.787Z,55.69
2019-03-11T13:07:46.394Z,56.14
2019-03-11T13:10:20.515Z,55.50
2019-03-11T13:12:49.332Z,55.15
2019-03-11T13:15:18.035Z,55.54
2019-03-11T13:17:46.732Z,53.69
2019-03-11T13:20:26.725Z,54.36
2019-03-11T13:22:55.099Z,54.33
2019-03-11T13:25:23.516Z,54.42
2019-03-11T13:27:52.158Z,52.71
2019-03-11T13:30:20.780Z,55.49
2019-03-11T13:32:49.353Z,52.92
2019-03-11T13:35:17.770Z,53.76
2019-03-11T13:37:46.414Z,52.61
2019-03-11T13:40:18.086Z,53.39
2019-03-11T13:42:46.455Z,54.37
2019-03-11T13:45:18.547Z,54.43
2019-03-11T13:47:47.108Z,54.60
2019-03-11T13:50:18.016Z,53.84
2019-03-11T13:52:46.523Z,56.15
2019-03-11T13:55:16.207Z,54.62
2019-03-11T13:57:44.721Z,55.08
2019-03-11T14:00:16.570Z,54.09
2019-03-11T14:02:44.913Z,54.46
2019-03-11T14:05:13.433Z,52.79
2019-03-11T14:07:41.771Z,54.81
2019-03-11T14:10:13.925Z,52.90
2019-03-11T14:12:42.344Z,53.88
2019-03-11T14:15:13.881Z,52.81
2019-03-11T14:17:42.298Z,54.69
2019-03-11T14:20:13.077Z,53.38
2019-03-11T14:22:41.417Z,53.14
2019-03-11T14:25:11.946Z,54.69
2019-03-11T14:27:40.404Z,53.25
2019-03-11T14:30:13.854Z,54.03
2019-03-11T14:32:42.271Z,53.92
2019-03-11T14:35:11.982Z,54.71
2019-03-11T14:37:40.468Z,53.37
2019-03-11T14:40:12.050Z,54.61
2019-03-11T14:42:40.477Z,54.04
2019-03-11T14:45:14.439Z,54.73
2019-03-11T14:47:42.779Z,53.23
2019-03-11T14:50:13.298Z,53.29
2019-03-11T14:52:41.743Z,54.02
2019-03-11T14:55:11.642Z,54.99
2019-03-11T14:57:39.978Z,53.90
2019-03-11T15:00:14.239Z,53.01
2019-03-11T15:02:42.663Z,52.78
2019-03-11T15:05:11.218Z,54.26
2019-03-11T15:07:39.701Z,54.57
2019-03-11T15:10:10.514Z,53.89
2019-03-11T15:12:38.987Z,52.01
2019-03-11T15:15:10.370Z,52.23
2019-03-11T15:17:38.711Z,53.06
2019-03-11T15:20:08.430Z,52.33
2019-03-11T15:22:36.776Z,52.31
2019-03-11T15:25:07.998Z,53.75
2019-03-11T15:27:37.470Z,53.58
2019-03-11T15:30:09.249Z,51.46
2019-03-11T15:32:37.589Z,52.56
2019-03-11T15:35:07.809Z,54.21
2019-03-11T15:37:36.319Z,52.25
2019-03-11T15:40:07.438Z,51.50
2019-03-11T15:42:35.790Z,52.25
2019-03-11T15:45:04.901Z,51.65
2019-03-11T15:47:33.305Z,51.93
2019-03-11T15:50:01.791Z,52.08
2019-03-11T15:52:30.210Z,51.29
2019-03-11T15:54:58.502Z,51.56
2019-03-11T15:57:26.876Z,51.62
2019-03-11T15:59:55.217Z,52.35
2019-03-11T16:02:23.668Z,52.71
2019-03-11T16:04:52.091Z,51.59
2019-03-11T16:07:20.544Z,51.39
2019-03-11T16:09:50.425Z,52.88
2019-03-11T16:12:18.803Z,53.40
2019-03-11T16:14:49.633Z,52.18
2019-03-11T16:17:17.323Z,52.59
2019-03-11T16:19:45.816Z,51.99
2019-03-11T16:22:22.835Z,52.95
2019-03-11T16:24:46.407Z,52.91
2019-03-11T16:27:14.870Z,52.79
2019-03-11T16:29:43.213Z,52.98
2019-03-11T16:32:12.174Z,52.50
2019-03-11T16:34:40.725Z,53.00
2019-03-11T16:37:09.100Z,53.59
2019-03-11T16:39:37.444Z,53.20
2019-03-11T16:42:05.886Z,52.43
2019-03-11T16:44:34.228Z,53.11
2019-03-11T16:47:02.684Z,51.88
2019-03-11T16:49:31.027Z,53.63
2019-03-11T16:52:01.464Z,53.38
2019-03-11T16:54:30.574Z,53.29
2019-03-11T16:56:59.367Z,53.77
2019-03-11T16:59:28.579Z,56.40
2019-03-11T17:02:01.825Z,54.06
2019-03-11T17:04:30.553Z,54.73
2019-03-11T17:06:58.948Z,54.75
2019-03-11T17:09:27.421Z,55.75
2019-03-11T17:11:55.790Z,55.04
2019-03-11T17:14:25.167Z,54.93
2019-03-11T17:16:53.609Z,54.74
2019-03-11T17:19:21.960Z,54.26
2019-03-11T17:21:50.339Z,56.17
2019-03-11T17:24:18.751Z,54.18
2019-03-11T17:26:47.123Z,55.89
2019-03-11T17:29:15.535Z,54.30
2019-03-11T17:31:44.043Z,56.21
2019-03-11T17:34:12.381Z,55.68
2019-03-11T17:36:42.554Z,56.12
2019-03-11T17:39:10.894Z,56.37
2019-03-11T17:41:39.461Z,57.54
2019-03-11T17:44:08.653Z,58.52
2019-03-11T17:46:37.059Z,58.91
2019-03-11T17:49:05.432Z,57.98
2019-03-11T17:51:34.801Z,58.40
2019-03-11T17:54:03.316Z,57.40
2019-03-11T17:56:31.661Z,58.36
2019-03-11T17:59:00.106Z,56.66
2019-03-11T18:01:28.661Z,57.22
2019-03-11T18:03:57.038Z,58.04
2019-03-11T18:06:25.449Z,57.97
2019-03-11T18:08:53.825Z,57.00
2019-03-11T18:11:22.171Z,58.54
2019-03-11T18:13:50.562Z,57.93
2019-03-11T18:16:18.903Z,57.15
2019-03-11T18:18:47.279Z,58.04
2019-03-11T18:21:16.756Z,58.27
2019-03-11T18:23:48.239Z,58.47
2019-03-11T18:26:16.602Z,58.45
2019-03-11T18:28:46.492Z,59.88
2019-03-11T18:31:14.984Z,58.67
2019-03-11T18:33:43.430Z,59.50
2019-03-11T18:36:11.844Z,60.64
2019-03-11T18:38:40.293Z,60.05
2019-03-11T18:41:08.815Z,60.49
2019-03-11T18:43:42.616Z,62.98
2019-03-11T18:46:07.338Z,62.42
2019-03-11T18:48:35.731Z,64.39
2019-03-11T18:51:10.969Z,64.84
2019-03-11T18:53:34.231Z,65.37
2019-03-11T18:56:02.676Z,65.16
2019-03-11T18:58:31.170Z,66.01
2019-03-11T19:00:59.650Z,66.60
2019-03-11T19:03:28.128Z,67.55
2019-03-11T19:05:56.539Z,67.55
2019-03-11T19:08:24.884Z,66.07
2019-03-11T19:10:55.155Z,67.20
2019-03-11T19:13:27.087Z,67.25
2019-03-11T19:15:55.574Z,66.42
2019-03-11T19:18:23.900Z,66.28
2019-03-11T19:20:52.363Z,65.69
2019-03-11T19:23:20.819Z,65.53
2019-03-11T19:25:49.252Z,67.06
2019-03-11T19:28:18.703Z,65.93
2019-03-11T19:30:47.310Z,66.78
2019-03-11T19:33:15.724Z,66.93
2019-03-11T19:35:44.123Z,67.24
2019-03-11T19:38:14.274Z,66.63
2019-03-11T19:40:42.827Z,68.00
2019-03-11T19:43:13.155Z,68.71
2019-03-11T19:45:41.606Z,67.78
2019-03-11T19:48:09.949Z,68.42
2019-03-11T19:50:38.298Z,68.48
2019-03-11T19:53:06.706Z,69.26
2019-03-11T19:55:35.544Z,68.64
2019-03-11T19:58:04.116Z,69.33
2019-03-11T20:00:32.546Z,69.93
2019-03-11T20:03:01.144Z,70.57
2019-03-11T20:05:31.716Z,70.77
2019-03-11T20:08:00.236Z,71.19
2019-03-11T20:10:28.721Z,70.63
2019-03-11T20:12:57.105Z,70.71
2019-03-11T20:15:26.203Z,72.35
2019-03-11T20:17:54.653Z,70.76
2019-03-11T20:20:23.163Z,71.07
2019-03-11T20:22:52.433Z,72.83
2019-03-11T20:25:30.203Z,73.04
2019-03-11T20:27:58.724Z,71.57
2019-03-11T20:30:27.200Z,72.22
2019-03-11T20:32:56.810Z,72.15
2019-03-11T20:35:30.585Z,71.88
2019-03-11T20:37:59.974Z,72.55
2019-03-11T20:40:28.336Z,71.64
2019-03-11T20:42:56.700Z,72.81
2019-03-11T20:45:25.619Z,73.81
2019-03-11T20:47:59.680Z,74.00
2019-03-11T20:50:37.586Z,74.36
2019-03-11T20:52:58.413Z,74.84
2019-03-11T20:55:26.766Z,76.13
2019-03-11T20:57:55.202Z,75.67
2019-03-11T21:00:24.965Z,77.96
2019-03-11T21:02:53.411Z,78.09
2019-03-11T21:05:41.543Z,79.58
2019-03-11T21:08:12.241Z,77.63
2019-03-11T21:10:44.801Z,78.22
2019-03-11T21:13:15.632Z,79.54
2019-03-11T21:15:47.274Z,80.35
2019-03-11T21:18:17.050Z,80.04
2019-03-11T21:20:45.707Z,79.69
2019-03-11T21:23:14.409Z,79.10
2019-03-11T21:25:42.830Z,79.83
2019-03-11T21:28:11.283Z,80.63
2019-03-11T21:30:40.542Z,81.39
2019-03-11T21:33:12.474Z,81.48
2019-03-11T21:35:40.912Z,81.25
2019-03-11T21:38:09.400Z,82.22
2019-03-11T21:40:37.845Z,82.91
2019-03-11T21:43:06.349Z,82.97
2019-03-11T21:45:35.407Z,83.57
2019-03-11T21:48:03.910Z,81.22
2019-03-11T21:50:32.286Z,82.65
2019-03-11T21:53:00.773Z,83.95
2019-03-11T21:55:29.138Z,84.67
2019-03-11T21:57:57.596Z,85.77
2019-03-11T22:00:34.506Z,85.75
2019-03-11T22:02:56.098Z,85.80
2019-03-11T22:05:29.067Z,85.45
2019-03-11T22:07:57.426Z,86.02
2019-03-11T22:10:25.840Z,87.14
2019-03-11T22:12:54.487Z,85.97
2019-03-11T22:15:26.595Z,85.96
2019-03-11T22:17:54.975Z,85.94
2019-03-11T22:20:23.386Z,84.23
2019-03-11T22:22:51.833Z,85.39
2019-03-11T22:25:21.320Z,85.27
2019-03-11T22:27:49.694Z,84.77
2019-03-11T22:30:20.149Z,84.62
2019-03-11T22:32:48.725Z,84.37
2019-03-11T22:35:17.155Z,84.70
2019-03-11T22:37:45.498Z,85.90
2019-03-11T22:40:15.021Z,87.00
2019-03-11T22:42:43.436Z,88.62
2019-03-11T22:45:16.803Z,87.84
2019-03-11T22:47:44.585Z,90.63
2019-03-11T22:50:13.046Z,91.84
2019-03-11T22:52:41.386Z,91.11
2019-03-11T22:55:11.596Z,92.01
2019-03-11T22:57:40.008Z,93.66
2019-03-11T23:00:14.303Z,94.54
2019-03-11T23:02:42.716Z,94.21
2019-03-11T23:05:11.238Z,93.65
2019-03-11T23:07:39.587Z,94.07
2019-03-11T23:10:09.647Z,92.70
2019-03-11T23:12:38.060Z,92.20
2019-03-11T23:15:08.466Z,92.70
2019-03-11T23:17:37.162Z,92.02
2019-03-11T23:20:09.064Z,90.84
2019-03-11T23:22:37.561Z,90.66
2019-03-11T23:25:07.363Z,90.95
2019-03-11T23:27:35.704Z,90.47
2019-03-11T23:30:10.173Z,90.66
2019-03-11T23:32:38.508Z,91.22
2019-03-11T23:35:07.723Z,92.91
2019-03-11T23:37:36.061Z,92.90
2019-03-11T23:40:05.983Z,91.90
2019-03-11T23:42:34.335Z,93.29
2019-03-11T23:45:02.776Z,96.70
2019-03-11T23:47:31.121Z,94.73
2019-03-11T23:49:59.493Z,92.79
2019-03-11T23:52:27.838Z,91.62
2019-03-11T23:54:56.211Z,91.94
2019-03-11T23:57:24.559Z,91.69
2019-03-11T23:59:52.936Z,92.71
